sensor_id;sensor_type;location;lat;lon;timestamp;pressure;altitude;pressure_sealevel;temperature;humidity
46007;BME280;31738;50.188;8.524;2022-07-06T00:01:19;99400.19;;;18.57;56.81
46007;BME280;31738;50.188;8.524;2022-07-06T00:03:44;99390.75;;;18.54;57.40
46007;BME280;31738;50.188;8.524;2022-07-06T00:06:10;99392.94;;;18.52;57.45
46007;BME280;31738;50.188;8.524;2022-07-06T00:08:36;99400.28;;;18.52;57.22
46007;BME280;31738;50.188;8.524;2022-07-06T00:11:01;99401.72;;;18.49;57.47
46007;BME280;31738;50.188;8.524;2022-07-06T00:13:27;99409.06;;;18.49;57.56
46007;BME280;31738;50.188;8.524;2022-07-06T00:15:53;99398.81;;;18.46;57.98
46007;BME280;31738;50.188;8.524;2022-07-06T00:18:18;99405.06;;;18.46;57.93
46007;BME280;31738;50.188;8.524;2022-07-06T00:20:43;99404.25;;;18.46;58.64
46007;BME280;31738;50.188;8.524;2022-07-06T00:23:09;99402.97;;;18.43;58.97
46007;BME280;31738;50.188;8.524;2022-07-06T00:25:35;99395.41;;;18.40;58.55
46007;BME280;31738;50.188;8.524;2022-07-06T00:28:01;99404.19;;;18.37;59.32
46007;BME280;31738;50.188;8.524;2022-07-06T00:30:26;99396.31;;;18.36;59.03
46007;BME280;31738;50.188;8.524;2022-07-06T00:32:52;99395.81;;;18.34;59.03
46007;BME280;31738;50.188;8.524;2022-07-06T00:35:17;99395.00;;;18.33;59.53
46007;BME280;31738;50.188;8.524;2022-07-06T00:37:43;99397.25;;;18.31;59.91
46007;BME280;31738;50.188;8.524;2022-07-06T00:40:08;99390.19;;;18.30;60.17
46007;BME280;31738;50.188;8.524;2022-07-06T00:42:41;99388.88;;;18.28;60.22
46007;BME280;31738;50.188;8.524;2022-07-06T00:45:07;99386.06;;;18.33;59.80
46007;BME280;31738;50.188;8.524;2022-07-06T00:47:33;99381.72;;;18.32;60.28
46007;BME280;31738;50.188;8.524;2022-07-06T00:49:59;99392.13;;;18.30;60.45
46007;BME280;31738;50.188;8.524;2022-07-06T00:52:42;99386.47;;;18.26;60.23
46007;BME280;31738;50.188;8.524;2022-07-06T00:55:09;99382.97;;;18.26;60.30
46007;BME280;31738;50.188;8.524;2022-07-06T00:57:36;99382.19;;;18.25;60.72
46007;BME280;31738;50.188;8.524;2022-07-06T01:00:03;99381.66;;;18.23;60.75
46007;BME280;31738;50.188;8.524;2022-07-06T01:02:33;99379.56;;;18.20;60.73
46007;BME280;31738;50.188;8.524;2022-07-06T01:04:59;99377.97;;;18.19;60.85
46007;BME280;31738;50.188;8.524;2022-07-06T01:07:25;99379.88;;;18.19;61.64
46007;BME280;31738;50.188;8.524;2022-07-06T01:09:51;99376.97;;;18.15;61.84
46007;BME280;31738;50.188;8.524;2022-07-06T01:12:17;99372.16;;;18.12;61.42
46007;BME280;31738;50.188;8.524;2022-07-06T01:14:43;99376.59;;;18.08;61.84
46007;BME280;31738;50.188;8.524;2022-07-06T01:17:09;99372.88;;;18.04;61.97
46007;BME280;31738;50.188;8.524;2022-07-06T01:19:34;99368.34;;;18.00;61.94
46007;BME280;31738;50.188;8.524;2022-07-06T01:22:00;99373.09;;;17.94;62.12
46007;BME280;31738;50.188;8.524;2022-07-06T01:24:26;99369.50;;;17.85;62.29
46007;BME280;31738;50.188;8.524;2022-07-06T01:26:53;99371.22;;;17.81;62.85
46007;BME280;31738;50.188;8.524;2022-07-06T01:29:19;99363.69;;;17.78;63.26
46007;BME280;31738;50.188;8.524;2022-07-06T01:31:47;99367.00;;;17.75;62.75
46007;BME280;31738;50.188;8.524;2022-07-06T01:34:17;99363.81;;;17.73;63.43
46007;BME280;31738;50.188;8.524;2022-07-06T01:36:43;99366.22;;;17.75;62.92
46007;BME280;31738;50.188;8.524;2022-07-06T01:39:10;99367.59;;;17.72;63.03
46007;BME280;31738;50.188;8.524;2022-07-06T01:41:36;99364.41;;;17.70;63.28
46007;BME280;31738;50.188;8.524;2022-07-06T01:44:03;99362.78;;;17.69;63.69
46007;BME280;31738;50.188;8.524;2022-07-06T01:46:29;99359.59;;;17.67;63.64
46007;BME280;31738;50.188;8.524;2022-07-06T01:48:55;99364.81;;;17.64;63.81
46007;BME280;31738;50.188;8.524;2022-07-06T01:51:21;99359.19;;;17.60;64.01
46007;BME280;31738;50.188;8.524;2022-07-06T01:53:48;99361.44;;;17.58;64.01
46007;BME280;31738;50.188;8.524;2022-07-06T01:56:16;99358.31;;;17.51;64.01
46007;BME280;31738;50.188;8.524;2022-07-06T01:58:47;99357.78;;;17.49;64.21
46007;BME280;31738;50.188;8.524;2022-07-06T02:01:15;99349.97;;;17.48;64.52
46007;BME280;31738;50.188;8.524;2022-07-06T02:03:41;99353.53;;;17.43;64.57
46007;BME280;31738;50.188;8.524;2022-07-06T02:06:08;99355.78;;;17.41;65.05
46007;BME280;31738;50.188;8.524;2022-07-06T02:08:34;99347.75;;;17.36;64.81
46007;BME280;31738;50.188;8.524;2022-07-06T02:11:01;99351.56;;;17.35;65.07
46007;BME280;31738;50.188;8.524;2022-07-06T02:13:29;99349.75;;;17.31;65.03
46007;BME280;31738;50.188;8.524;2022-07-06T02:15:54;99347.94;;;17.26;65.24
46007;BME280;31738;50.188;8.524;2022-07-06T02:18:20;99351.84;;;17.20;65.41
46007;BME280;31738;50.188;8.524;2022-07-06T02:20:45;99350.56;;;17.18;65.67
46007;BME280;31738;50.188;8.524;2022-07-06T02:23:11;99351.97;;;17.15;65.44
46007;BME280;31738;50.188;8.524;2022-07-06T02:25:36;99346.53;;;17.15;65.51
46007;BME280;31738;50.188;8.524;2022-07-06T02:28:02;99346.53;;;17.15;65.82
46007;BME280;31738;50.188;8.524;2022-07-06T02:30:28;99346.13;;;17.08;65.59
46007;BME280;31738;50.188;8.524;2022-07-06T02:32:54;99349.72;;;17.03;65.47
46007;BME280;31738;50.188;8.524;2022-07-06T02:35:19;99340.09;;;16.97;65.53
46007;BME280;31738;50.188;8.524;2022-07-06T02:37:45;99346.13;;;16.94;65.58
46007;BME280;31738;50.188;8.524;2022-07-06T02:40:11;99343.78;;;16.88;65.30
46007;BME280;31738;50.188;8.524;2022-07-06T02:42:36;99345.19;;;16.85;65.34
46007;BME280;31738;50.188;8.524;2022-07-06T02:45:02;99346.91;;;16.81;65.33
46007;BME280;31738;50.188;8.524;2022-07-06T02:47:28;99354.31;;;16.76;65.57
46007;BME280;31738;50.188;8.524;2022-07-06T02:49:54;99345.19;;;16.72;65.06
46007;BME280;31738;50.188;8.524;2022-07-06T02:52:21;99348.97;;;16.71;65.61
46007;BME280;31738;50.188;8.524;2022-07-06T02:54:46;99355.00;;;16.68;65.15
46007;BME280;31738;50.188;8.524;2022-07-06T02:57:13;99347.28;;;16.61;65.50
46007;BME280;31738;50.188;8.524;2022-07-06T02:59:39;99353.00;;;16.60;65.73
46007;BME280;31738;50.188;8.524;2022-07-06T03:02:04;99352.47;;;16.58;65.44
46007;BME280;31738;50.188;8.524;2022-07-06T03:04:30;99351.88;;;16.61;65.30
46007;BME280;31738;50.188;8.524;2022-07-06T03:06:56;99350.75;;;16.62;65.71
46007;BME280;31738;50.188;8.524;2022-07-06T03:09:22;99354.28;;;16.62;65.88
46007;BME280;31738;50.188;8.524;2022-07-06T03:11:48;99348.66;;;16.59;65.80
46007;BME280;31738;50.188;8.524;2022-07-06T03:14:13;99358.47;;;16.55;65.69
46007;BME280;31738;50.188;8.524;2022-07-06T03:16:42;99358.25;;;16.51;65.90
46007;BME280;31738;50.188;8.524;2022-07-06T03:19:08;99349.91;;;16.48;66.04
46007;BME280;31738;50.188;8.524;2022-07-06T03:21:34;99354.25;;;16.49;65.91
46007;BME280;31738;50.188;8.524;2022-07-06T03:24:00;99342.38;;;16.45;66.33
46007;BME280;31738;50.188;8.524;2022-07-06T03:26:26;99344.34;;;16.39;66.25
46007;BME280;31738;50.188;8.524;2022-07-06T03:28:51;99351.19;;;16.37;66.02
46007;BME280;31738;50.188;8.524;2022-07-06T03:31:18;99347.94;;;16.35;66.21
46007;BME280;31738;50.188;8.524;2022-07-06T03:33:44;99355.84;;;16.31;66.59
46007;BME280;31738;50.188;8.524;2022-07-06T03:36:09;99356.44;;;16.28;66.61
46007;BME280;31738;50.188;8.524;2022-07-06T03:38:36;99350.25;;;16.28;67.03
46007;BME280;31738;50.188;8.524;2022-07-06T03:41:02;99348.03;;;16.30;66.95
46007;BME280;31738;50.188;8.524;2022-07-06T03:43:28;99356.75;;;16.27;66.94
46007;BME280;31738;50.188;8.524;2022-07-06T03:45:54;99354.91;;;16.22;67.22
46007;BME280;31738;50.188;8.524;2022-07-06T03:48:20;99353.09;;;16.18;67.40
46007;BME280;31738;50.188;8.524;2022-07-06T03:50:46;99358.50;;;16.18;67.69
46007;BME280;31738;50.188;8.524;2022-07-06T03:53:12;99344.25;;;16.12;67.98
46007;BME280;31738;50.188;8.524;2022-07-06T03:55:38;99364.56;;;16.10;68.14
46007;BME280;31738;50.188;8.524;2022-07-06T03:58:07;99353.84;;;16.05;68.46
46007;BME280;31738;50.188;8.524;2022-07-06T04:00:35;99352.81;;;16.01;68.78
46007;BME280;31738;50.188;8.524;2022-07-06T04:03:03;99347.41;;;16.01;68.82
46007;BME280;31738;50.188;8.524;2022-07-06T04:05:34;99350.63;;;16.03;68.85
46007;BME280;31738;50.188;8.524;2022-07-06T04:07:59;99351.13;;;16.05;68.79
46007;BME280;31738;50.188;8.524;2022-07-06T04:10:32;99349.03;;;16.02;69.13
46007;BME280;31738;50.188;8.524;2022-07-06T04:12:58;99340.91;;;16.02;69.13
46007;BME280;31738;50.188;8.524;2022-07-06T04:15:24;99337.63;;;16.05;69.24
46007;BME280;31738;50.188;8.524;2022-07-06T04:17:50;99338.69;;;16.04;69.39
46007;BME280;31738;50.188;8.524;2022-07-06T04:20:21;99338.19;;;16.02;69.57
46007;BME280;31738;50.188;8.524;2022-07-06T04:22:48;99336.56;;;16.01;69.78
46007;BME280;31738;50.188;8.524;2022-07-06T04:25:15;99339.78;;;16.03;69.75
46007;BME280;31738;50.188;8.524;2022-07-06T04:27:40;99350.63;;;16.03;69.72
46007;BME280;31738;50.188;8.524;2022-07-06T04:30:07;99346.03;;;16.03;70.00
46007;BME280;31738;50.188;8.524;2022-07-06T04:32:34;99336.56;;;16.01;70.04
46007;BME280;31738;50.188;8.524;2022-07-06T04:35:00;99345.78;;;16.00;70.24
46007;BME280;31738;50.188;8.524;2022-07-06T04:37:25;99345.28;;;15.98;70.33
46007;BME280;31738;50.188;8.524;2022-07-06T04:39:51;99349.09;;;15.97;70.51
46007;BME280;31738;50.188;8.524;2022-07-06T04:42:17;99341.19;;;16.00;70.53
46007;BME280;31738;50.188;8.524;2022-07-06T04:44:42;99342.50;;;16.03;70.38
46007;BME280;31738;50.188;8.524;2022-07-06T04:47:09;99350.03;;;16.06;70.16
46007;BME280;31738;50.188;8.524;2022-07-06T04:49:34;99336.50;;;16.06;70.36
46007;BME280;31738;50.188;8.524;2022-07-06T04:52:00;99340.81;;;16.07;70.23
46007;BME280;31738;50.188;8.524;2022-07-06T04:54:27;99328.59;;;16.09;70.53
46007;BME280;31738;50.188;8.524;2022-07-06T04:56:52;99338.03;;;16.12;70.60
46007;BME280;31738;50.188;8.524;2022-07-06T04:59:18;99335.25;;;16.17;70.53
46007;BME280;31738;50.188;8.524;2022-07-06T05:01:45;99344.97;;;16.18;70.35
46007;BME280;31738;50.188;8.524;2022-07-06T05:04:10;99351.50;;;16.17;70.40
46007;BME280;31738;50.188;8.524;2022-07-06T05:06:36;99350.69;;;16.16;70.61
46007;BME280;31738;50.188;8.524;2022-07-06T05:09:02;99348.50;;;16.18;70.48
46007;BME280;31738;50.188;8.524;2022-07-06T05:11:29;99351.69;;;16.20;70.35
46007;BME280;31738;50.188;8.524;2022-07-06T05:13:55;99355.78;;;16.18;70.57
46007;BME280;31738;50.188;8.524;2022-07-06T05:16:21;99356.31;;;16.20;70.61
46007;BME280;31738;50.188;8.524;2022-07-06T05:18:47;99348.13;;;16.25;70.58
46007;BME280;31738;50.188;8.524;2022-07-06T05:21:14;99361.78;;;16.33;70.25
46007;BME280;31738;50.188;8.524;2022-07-06T05:23:40;99359.19;;;16.42;70.28
46007;BME280;31738;50.188;8.524;2022-07-06T05:26:05;99356.66;;;16.50;70.44
46007;BME280;31738;50.188;8.524;2022-07-06T05:28:32;99362.72;;;16.61;70.12
46007;BME280;31738;50.188;8.524;2022-07-06T05:30:59;99372.56;;;16.70;69.43
46007;BME280;31738;50.188;8.524;2022-07-06T05:33:27;99371.38;;;16.76;69.71
46007;BME280;31738;50.188;8.524;2022-07-06T05:35:53;99386.44;;;16.82;69.48
46007;BME280;31738;50.188;8.524;2022-07-06T05:38:24;99386.84;;;16.89;68.78
46007;BME280;31738;50.188;8.524;2022-07-06T05:40:50;99391.88;;;16.96;68.73
46007;BME280;31738;50.188;8.524;2022-07-06T05:43:16;99395.31;;;17.01;68.64
46007;BME280;31738;50.188;8.524;2022-07-06T05:45:42;99401.16;;;17.08;67.91
46007;BME280;31738;50.188;8.524;2022-07-06T05:48:08;99412.00;;;17.08;68.17
46007;BME280;31738;50.188;8.524;2022-07-06T05:50:53;99412.28;;;17.07;68.48
46007;BME280;31738;50.188;8.524;2022-07-06T05:53:19;99401.97;;;17.09;68.47
46007;BME280;31738;50.188;8.524;2022-07-06T05:55:46;99406.19;;;17.15;68.44
46007;BME280;31738;50.188;8.524;2022-07-06T05:58:12;99416.44;;;17.18;68.65
46007;BME280;31738;50.188;8.524;2022-07-06T06:00:38;99422.34;;;17.20;68.68
46007;BME280;31738;50.188;8.524;2022-07-06T06:03:10;99415.84;;;17.21;68.82
46007;BME280;31738;50.188;8.524;2022-07-06T06:05:36;99430.91;;;17.27;68.91
46007;BME280;31738;50.188;8.524;2022-07-06T06:08:05;99426.69;;;17.35;68.84
46007;BME280;31738;50.188;8.524;2022-07-06T06:10:30;99439.13;;;17.36;68.85
46007;BME280;31738;50.188;8.524;2022-07-06T06:12:59;99434.00;;;17.34;68.48
46007;BME280;31738;50.188;8.524;2022-07-06T06:15:25;99432.72;;;17.32;68.85
46007;BME280;31738;50.188;8.524;2022-07-06T06:17:50;99431.91;;;17.31;68.71
46007;BME280;31738;50.188;8.524;2022-07-06T06:20:16;99435.72;;;17.30;68.88
46007;BME280;31738;50.188;8.524;2022-07-06T06:22:53;99436.13;;;17.24;68.80
46007;BME280;31738;50.188;8.524;2022-07-06T06:25:21;99435.22;;;17.28;68.31
46007;BME280;31738;50.188;8.524;2022-07-06T06:27:46;99430.31;;;17.30;68.65
46007;BME280;31738;50.188;8.524;2022-07-06T06:30:12;99441.56;;;17.37;68.48
46007;BME280;31738;50.188;8.524;2022-07-06T06:32:38;99443.38;;;17.42;68.26
46007;BME280;31738;50.188;8.524;2022-07-06T06:35:05;99441.47;;;17.42;68.06
46007;BME280;31738;50.188;8.524;2022-07-06T06:37:32;99440.81;;;17.50;68.51
46007;BME280;31738;50.188;8.524;2022-07-06T06:39:58;99441.78;;;17.68;67.58
46007;BME280;31738;50.188;8.524;2022-07-06T06:42:23;99448.31;;;17.80;67.69
46007;BME280;31738;50.188;8.524;2022-07-06T06:44:50;99448.00;;;17.95;67.30
46007;BME280;31738;50.188;8.524;2022-07-06T06:47:16;99456.03;;;18.00;66.78
46007;BME280;31738;50.188;8.524;2022-07-06T06:49:41;99451.81;;;18.08;66.62
46007;BME280;31738;50.188;8.524;2022-07-06T06:52:07;99463.75;;;18.20;65.92
46007;BME280;31738;50.188;8.524;2022-07-06T06:54:32;99469.47;;;18.32;65.19
46007;BME280;31738;50.188;8.524;2022-07-06T06:56:58;99474.09;;;18.45;65.30
46007;BME280;31738;50.188;8.524;2022-07-06T06:59:23;99478.16;;;18.56;64.94
46007;BME280;31738;50.188;8.524;2022-07-06T07:01:49;99473.81;;;18.69;64.38
46007;BME280;31738;50.188;8.524;2022-07-06T07:04:14;99483.44;;;18.75;63.46
46007;BME280;31738;50.188;8.524;2022-07-06T07:06:40;99494.41;;;18.84;62.87
46007;BME280;31738;50.188;8.524;2022-07-06T07:09:05;99499.06;;;18.92;63.11
46007;BME280;31738;50.188;8.524;2022-07-06T07:11:31;99505.25;;;19.06;62.66
46007;BME280;31738;50.188;8.524;2022-07-06T07:13:56;99515.78;;;19.21;62.39
46007;BME280;31738;50.188;8.524;2022-07-06T07:16:22;99511.94;;;19.44;61.73
46007;BME280;31738;50.188;8.524;2022-07-06T07:18:50;99518.94;;;19.67;60.64
46007;BME280;31738;50.188;8.524;2022-07-06T07:21:15;99523.00;;;19.78;59.96
46007;BME280;31738;50.188;8.524;2022-07-06T07:23:41;99528.00;;;19.84;59.25
46007;BME280;31738;50.188;8.524;2022-07-06T07:26:07;99539.06;;;19.88;58.87
46007;BME280;31738;50.188;8.524;2022-07-06T07:28:32;99540.84;;;19.92;58.92
46007;BME280;31738;50.188;8.524;2022-07-06T07:30:57;99538.78;;;19.98;59.30
46007;BME280;31738;50.188;8.524;2022-07-06T07:33:23;99546.63;;;19.99;58.89
46007;BME280;31738;50.188;8.524;2022-07-06T07:35:48;99558.34;;;20.00;58.87
46007;BME280;31738;50.188;8.524;2022-07-06T07:38:14;99553.50;;;19.97;58.97
46007;BME280;31738;50.188;8.524;2022-07-06T07:40:39;99552.53;;;19.93;59.41
46007;BME280;31738;50.188;8.524;2022-07-06T07:43:05;99552.53;;;19.93;59.30
46007;BME280;31738;50.188;8.524;2022-07-06T07:45:30;99556.38;;;19.92;58.99
46007;BME280;31738;50.188;8.524;2022-07-06T07:47:56;99550.75;;;19.88;59.12
46007;BME280;31738;50.188;8.524;2022-07-06T07:50:21;99552.19;;;19.86;58.42
46007;BME280;31738;50.188;8.524;2022-07-06T07:52:47;99560.34;;;19.86;58.52
46007;BME280;31738;50.188;8.524;2022-07-06T07:55:12;99556.47;;;19.78;58.00
46007;BME280;31738;50.188;8.524;2022-07-06T07:57:38;99568.94;;;19.71;58.88
46007;BME280;31738;50.188;8.524;2022-07-06T08:00:04;99555.94;;;19.68;58.43
46007;BME280;31738;50.188;8.524;2022-07-06T08:02:37;99557.53;;;19.69;57.30
46007;BME280;31738;50.188;8.524;2022-07-06T08:05:03;99560.97;;;19.74;56.33
46007;BME280;31738;50.188;8.524;2022-07-06T08:07:28;99570.34;;;19.68;56.35
46007;BME280;31738;50.188;8.524;2022-07-06T08:09:54;99569.38;;;19.64;56.36
46007;BME280;31738;50.188;8.524;2022-07-06T08:12:19;99580.56;;;19.63;55.44
46007;BME280;31738;50.188;8.524;2022-07-06T08:14:45;99586.03;;;19.63;54.98
46007;BME280;31738;50.188;8.524;2022-07-06T08:17:10;99575.78;;;19.68;55.77
46007;BME280;31738;50.188;8.524;2022-07-06T08:19:36;99580.00;;;19.74;54.29
46007;BME280;31738;50.188;8.524;2022-07-06T08:22:01;99586.16;;;19.88;54.02
46007;BME280;31738;50.188;8.524;2022-07-06T08:24:33;99594.47;;;20.14;52.66
46007;BME280;31738;50.188;8.524;2022-07-06T08:27:00;99609.78;;;20.41;52.02
46007;BME280;31738;50.188;8.524;2022-07-06T08:29:25;99612.09;;;20.64;51.31
46007;BME280;31738;50.188;8.524;2022-07-06T08:31:51;99623.06;;;20.81;50.52
46007;BME280;31738;50.188;8.524;2022-07-06T08:34:16;99630.91;;;20.91;50.25
46007;BME280;31738;50.188;8.524;2022-07-06T08:36:42;99628.88;;;21.05;49.83
46007;BME280;31738;50.188;8.524;2022-07-06T08:39:07;99639.00;;;21.22;48.88
46007;BME280;31738;50.188;8.524;2022-07-06T08:41:34;99637.88;;;21.31;49.25
46007;BME280;31738;50.188;8.524;2022-07-06T08:43:59;99650.09;;;21.42;48.61
46007;BME280;31738;50.188;8.524;2022-07-06T08:46:27;99649.91;;;21.39;48.74
46007;BME280;31738;50.188;8.524;2022-07-06T08:48:53;99661.00;;;21.42;48.34
46007;BME280;31738;50.188;8.524;2022-07-06T08:51:20;99664.84;;;21.33;48.31
46007;BME280;31738;50.188;8.524;2022-07-06T08:53:47;99675.28;;;21.14;48.23
46007;BME280;31738;50.188;8.524;2022-07-06T08:56:14;99672.69;;;21.00;49.01
46007;BME280;31738;50.188;8.524;2022-07-06T08:58:40;99675.41;;;21.00;49.21
46007;BME280;31738;50.188;8.524;2022-07-06T09:01:09;99676.44;;;21.21;48.05
46007;BME280;31738;50.188;8.524;2022-07-06T09:03:35;99672.88;;;21.29;47.51
46007;BME280;31738;50.188;8.524;2022-07-06T09:06:02;99688.16;;;21.30;47.36
46007;BME280;31738;50.188;8.524;2022-07-06T09:08:30;99687.03;;;21.48;47.15
46007;BME280;31738;50.188;8.524;2022-07-06T09:10:56;99688.47;;;21.71;47.13
46007;BME280;31738;50.188;8.524;2022-07-06T09:13:22;99695.53;;;21.89;46.47
46007;BME280;31738;50.188;8.524;2022-07-06T09:15:47;99693.78;;;21.93;45.50
46007;BME280;31738;50.188;8.524;2022-07-06T09:18:13;99711.44;;;21.87;44.97
46007;BME280;31738;50.188;8.524;2022-07-06T09:20:41;99712.91;;;21.85;45.03
46007;BME280;31738;50.188;8.524;2022-07-06T09:23:06;99718.81;;;21.95;44.83
46007;BME280;31738;50.188;8.524;2022-07-06T09:25:33;99720.75;;;22.04;44.56
46007;BME280;31738;50.188;8.524;2022-07-06T09:27:59;99715.47;;;21.90;45.27
46007;BME280;31738;50.188;8.524;2022-07-06T09:30:26;99713.72;;;21.85;44.57
46007;BME280;31738;50.188;8.524;2022-07-06T09:32:54;99719.97;;;21.94;44.74
46007;BME280;31738;50.188;8.524;2022-07-06T09:37:59;99726.19;;;22.21;44.03
46007;BME280;31738;50.188;8.524;2022-07-06T09:40:25;99728.13;;;22.12;44.12
46007;BME280;31738;50.188;8.524;2022-07-06T09:42:50;99733.94;;;21.93;43.71
46007;BME280;31738;50.188;8.524;2022-07-06T09:45:20;99745.81;;;21.71;43.76
46007;BME280;31738;50.188;8.524;2022-07-06T09:47:47;99743.59;;;21.73;43.46
46007;BME280;31738;50.188;8.524;2022-07-06T09:50:15;99732.97;;;21.98;44.48
46007;BME280;31738;50.188;8.524;2022-07-06T09:52:53;99742.22;;;22.31;43.04
46007;BME280;31738;50.188;8.524;2022-07-06T09:55:21;99737.09;;;22.38;42.60
46007;BME280;31738;50.188;8.524;2022-07-06T09:57:54;99739.00;;;22.46;41.98
46007;BME280;31738;50.188;8.524;2022-07-06T10:00:22;99747.47;;;22.70;41.91
46007;BME280;31738;50.188;8.524;2022-07-06T10:02:48;99755.59;;;22.87;41.99
46007;BME280;31738;50.188;8.524;2022-07-06T10:05:16;99759.66;;;23.10;40.79
46007;BME280;31738;50.188;8.524;2022-07-06T10:07:45;99764.06;;;23.02;39.47
46007;BME280;31738;50.188;8.524;2022-07-06T10:10:10;99779.94;;;23.09;39.25
46007;BME280;31738;50.188;8.524;2022-07-06T10:12:37;99774.41;;;23.26;39.79
46007;BME280;31738;50.188;8.524;2022-07-06T10:15:04;99768.28;;;23.29;39.45
46007;BME280;31738;50.188;8.524;2022-07-06T10:17:30;99786.50;;;23.16;39.03
46007;BME280;31738;50.188;8.524;2022-07-06T10:19:56;99774.47;;;23.09;39.89
46007;BME280;31738;50.188;8.524;2022-07-06T10:22:22;99786.44;;;23.33;38.93
46007;BME280;31738;50.188;8.524;2022-07-06T10:24:48;99779.22;;;23.29;39.13
46007;BME280;31738;50.188;8.524;2022-07-06T10:27:14;99786.00;;;23.23;39.14
46007;BME280;31738;50.188;8.524;2022-07-06T10:29:40;99780.28;;;23.07;39.45
46007;BME280;31738;50.188;8.524;2022-07-06T10:32:06;99779.19;;;23.00;39.60
46007;BME280;31738;50.188;8.524;2022-07-06T10:34:33;99778.84;;;23.10;40.15
46007;BME280;31738;50.188;8.524;2022-07-06T10:37:00;99785.09;;;23.10;39.39
46007;BME280;31738;50.188;8.524;2022-07-06T10:39:36;99783.97;;;23.11;39.86
46007;BME280;31738;50.188;8.524;2022-07-06T10:42:57;99778.44;;;23.28;38.80
46007;BME280;31738;50.188;8.524;2022-07-06T10:48:16;99769.31;;;23.66;40.01
46007;BME280;31738;50.188;8.524;2022-07-06T10:50:53;99771.38;;;23.89;38.60
46007;BME280;31738;50.188;8.524;2022-07-06T10:55:53;99778.06;;;23.80;37.41
46007;BME280;31738;50.188;8.524;2022-07-06T11:01:05;99777.72;;;24.22;37.32
46007;BME280;31738;50.188;8.524;2022-07-06T11:03:35;99776.88;;;24.54;37.75
46007;BME280;31738;50.188;8.524;2022-07-06T11:08:43;99780.06;;;25.01;35.87
46007;BME280;31738;50.188;8.524;2022-07-06T11:11:19;99781.78;;;24.81;36.17
46007;BME280;31738;50.188;8.524;2022-07-06T11:14:04;99781.53;;;24.86;37.17
46007;BME280;31738;50.188;8.524;2022-07-06T11:16:32;99792.50;;;24.74;36.44
46007;BME280;31738;50.188;8.524;2022-07-06T11:21:44;99785.75;;;24.72;37.19
46007;BME280;31738;50.188;8.524;2022-07-06T11:24:15;99775.72;;;25.00;36.67
46007;BME280;31738;50.188;8.524;2022-07-06T11:26:43;99782.47;;;25.02;36.83
46007;BME280;31738;50.188;8.524;2022-07-06T11:29:09;99781.31;;;24.67;36.82
46007;BME280;31738;50.188;8.524;2022-07-06T11:31:38;99797.34;;;24.45;36.84
46007;BME280;31738;50.188;8.524;2022-07-06T11:34:04;99788.09;;;23.96;37.56
46007;BME280;31738;50.188;8.524;2022-07-06T11:36:30;99781.81;;;23.75;37.78
46007;BME280;31738;50.188;8.524;2022-07-06T11:38:56;99771.66;;;23.76;38.87
46007;BME280;31738;50.188;8.524;2022-07-06T11:41:21;99767.38;;;24.07;38.79
46007;BME280;31738;50.188;8.524;2022-07-06T11:43:47;99750.38;;;24.58;38.51
46007;BME280;31738;50.188;8.524;2022-07-06T11:46:32;99769.44;;;24.87;36.18
46007;BME280;31738;50.188;8.524;2022-07-06T11:49:01;99756.25;;;24.81;36.35
46007;BME280;31738;50.188;8.524;2022-07-06T11:51:28;99761.88;;;24.72;36.74
46007;BME280;31738;50.188;8.524;2022-07-06T11:53:56;99774.25;;;24.46;35.94
46007;BME280;31738;50.188;8.524;2022-07-06T11:56:23;99764.00;;;24.22;36.74
46007;BME280;31738;50.188;8.524;2022-07-06T11:58:57;99766.59;;;24.07;37.14
46007;BME280;31738;50.188;8.524;2022-07-06T12:01:27;99764.56;;;23.95;37.54
46007;BME280;31738;50.188;8.524;2022-07-06T12:04:00;99760.69;;;24.17;37.40
46007;BME280;31738;50.188;8.524;2022-07-06T12:06:27;99760.63;;;24.37;36.45
46007;BME280;31738;50.188;8.524;2022-07-06T12:08:55;99753.59;;;24.60;36.38
46007;BME280;31738;50.188;8.524;2022-07-06T12:11:26;99757.06;;;24.69;35.54
46007;BME280;31738;50.188;8.524;2022-07-06T12:13:54;99762.59;;;24.49;35.82
46007;BME280;31738;50.188;8.524;2022-07-06T12:16:20;99754.69;;;24.47;36.03
46007;BME280;31738;50.188;8.524;2022-07-06T12:18:48;99759.69;;;24.66;35.47
46007;BME280;31738;50.188;8.524;2022-07-06T12:21:17;99754.88;;;24.75;36.15
46007;BME280;31738;50.188;8.524;2022-07-06T12:23:48;99758.91;;;25.01;35.88
46007;BME280;31738;50.188;8.524;2022-07-06T12:26:15;99763.34;;;25.30;34.93
46007;BME280;31738;50.188;8.524;2022-07-06T12:28:42;99766.09;;;25.30;34.08
46007;BME280;31738;50.188;8.524;2022-07-06T12:31:08;99756.63;;;25.28;35.60
46007;BME280;31738;50.188;8.524;2022-07-06T12:33:34;99757.41;;;25.40;34.55
46007;BME280;31738;50.188;8.524;2022-07-06T12:36:14;99760.97;;;25.16;34.54
46007;BME280;31738;50.188;8.524;2022-07-06T12:38:47;99757.88;;;25.06;35.20
46007;BME280;31738;50.188;8.524;2022-07-06T12:41:29;99759.47;;;25.07;35.66
46007;BME280;31738;50.188;8.524;2022-07-06T12:44:09;99750.53;;;25.34;35.64
46007;BME280;31738;50.188;8.524;2022-07-06T12:46:35;99754.88;;;25.47;35.05
46007;BME280;31738;50.188;8.524;2022-07-06T12:49:04;99754.09;;;25.35;35.87
46007;BME280;31738;50.188;8.524;2022-07-06T12:51:53;99748.50;;;25.43;35.57
46007;BME280;31738;50.188;8.524;2022-07-06T12:54:19;99753.81;;;25.64;35.18
46007;BME280;31738;50.188;8.524;2022-07-06T12:59:36;99753.53;;;25.81;34.93
46007;BME280;31738;50.188;8.524;2022-07-06T13:02:03;99756.06;;;25.86;34.65
46007;BME280;31738;50.188;8.524;2022-07-06T13:04:32;99757.41;;;25.92;34.32
46007;BME280;31738;50.188;8.524;2022-07-06T13:06:59;99762.00;;;26.00;33.54
46007;BME280;31738;50.188;8.524;2022-07-06T13:09:25;99765.16;;;26.02;33.28
46007;BME280;31738;50.188;8.524;2022-07-06T13:11:51;99771.91;;;25.65;33.90
46007;BME280;31738;50.188;8.524;2022-07-06T13:14:17;99761.41;;;25.55;34.34
46007;BME280;31738;50.188;8.524;2022-07-06T13:16:44;99767.00;;;25.58;33.83
46007;BME280;31738;50.188;8.524;2022-07-06T13:19:10;99766.31;;;25.61;33.94